createdAt,value
2017-12-03T00:09:46.000Z,23.97
2017-12-03T00:19:46.000Z,23.87
2017-12-03T00:29:46.000Z,23.91
2017-12-03T00:39:46.000Z,23.87
2017-12-03T00:49:46.000Z,23.85
2017-12-03T00:59:46.000Z,23.81
2017-12-03T01:09:46.000Z,23.77
2017-12-03T01:19:46.000Z,23.71
2017-12-03T01:29:46.000Z,23.82
2017-12-03T01:39:46.000Z,23.75
2017-12-03T01:49:46.000Z,23.78
2017-12-03T01:59:46.000Z,23.77
2017-12-03T02:09:46.000Z,23.76
2017-12-03T02:19:46.000Z,23.8
2017-12-03T02:29:46.000Z,23.72
2017-12-03T02:39:46.000Z,23.78
2017-12-03T02:49:46.000Z,23.72
2017-12-03T02:59:46.000Z,23.75
2017-12-03T03:09:46.000Z,23.76
2017-12-03T03:19:46.000Z,23.74
2017-12-03T03:29:46.000Z,23.75
2017-12-03T03:39:46.000Z,23.72
2017-12-03T03:49:46.000Z,23.7
2017-12-03T03:59:46.000Z,23.66
2017-12-03T04:09:46.000Z,23.68
2017-12-03T04:19:46.000Z,23.6
2017-12-03T04:29:46.000Z,23.61
2017-12-03T04:39:46.000Z,23.57
2017-12-03T04:49:46.000Z,23.54
2017-12-03T04:59:46.000Z,23.52
2017-12-03T05:09:46.000Z,23.51
2017-12-03T05:19:46.000Z,23.52
2017-12-03T05:29:46.000Z,23.47
2017-12-03T05:39:46.000Z,23.43
2017-12-03T05:49:46.000Z,23.5
2017-12-03T05:59:46.000Z,23.53
2017-12-03T06:09:46.000Z,23.59
2017-12-03T06:19:46.000Z,23.61
2017-12-03T06:29:46.000Z,23.62
2017-12-03T06:39:46.000Z,23.61
2017-12-03T06:49:46.000Z,23.72
2017-12-03T06:59:47.000Z,23.73
2017-12-03T07:09:48.000Z,23.79
2017-12-03T07:19:47.000Z,23.8
2017-12-03T07:29:47.000Z,23.8
2017-12-03T07:39:47.000Z,23.92
2017-12-03T07:49:47.000Z,23.9
2017-12-03T07:59:47.000Z,24.03
2017-12-03T08:09:47.000Z,24.09
2017-12-03T08:19:47.000Z,24.1
2017-12-03T08:29:47.000Z,24.1
2017-12-03T08:39:47.000Z,24.17
2017-12-03T08:49:47.000Z,24.27
2017-12-03T08:59:47.000Z,24.25
2017-12-03T09:09:47.000Z,24.35
2017-12-03T09:19:47.000Z,24.44
2017-12-03T09:29:47.000Z,24.39
2017-12-03T09:39:47.000Z,24.43
2017-12-03T09:49:47.000Z,24.5
2017-12-03T09:59:47.000Z,22.43
2017-12-03T10:09:47.000Z,21.65
2017-12-03T10:19:47.000Z,23.71
2017-12-03T10:29:47.000Z,23.91
2017-12-03T10:39:47.000Z,24
2017-12-03T10:49:47.000Z,24.05
2017-12-03T10:59:47.000Z,24.17
2017-12-03T11:09:47.000Z,24.19
2017-12-03T11:19:47.000Z,24.36
2017-12-03T11:29:47.000Z,24.24
2017-12-03T11:39:47.000Z,24.29
2017-12-03T11:49:47.000Z,24.25
2017-12-03T11:59:47.000Z,24.36
2017-12-03T12:09:47.000Z,24.37
2017-12-03T12:19:47.000Z,24.38
2017-12-03T12:29:47.000Z,24.42
2017-12-03T12:39:47.000Z,24.6
2017-12-03T12:49:47.000Z,24.45
2017-12-03T12:59:47.000Z,24.55
2017-12-03T13:09:47.000Z,24.52
2017-12-03T13:19:47.000Z,24.47
2017-12-03T13:29:47.000Z,24.47
2017-12-03T13:39:47.000Z,24.45
2017-12-03T13:49:47.000Z,24.49
2017-12-03T13:59:48.000Z,24.59
2017-12-03T14:09:47.000Z,24.49
2017-12-03T14:19:47.000Z,24.57
2017-12-03T14:29:47.000Z,24.69
2017-12-03T14:39:47.000Z,24.7
2017-12-03T14:49:48.000Z,24.62
2017-12-03T14:59:47.000Z,24.56
2017-12-03T15:09:48.000Z,24.69
2017-12-03T15:19:48.000Z,24.62
2017-12-03T15:29:48.000Z,24.72
2017-12-03T15:39:48.000Z,24.75
2017-12-03T15:49:48.000Z,24.83
2017-12-03T15:59:48.000Z,24.74
2017-12-03T16:09:48.000Z,24.78
2017-12-03T16:19:48.000Z,24.95
2017-12-03T16:29:48.000Z,25.15
2017-12-03T16:39:48.000Z,24.9
2017-12-03T16:49:48.000Z,25.08
2017-12-03T16:59:48.000Z,24.96
2017-12-03T17:09:48.000Z,24.84
2017-12-03T17:19:48.000Z,24.89
2017-12-03T17:29:48.000Z,24.81
2017-12-03T17:39:48.000Z,24.9
2017-12-03T17:49:48.000Z,24.84
2017-12-03T17:59:48.000Z,24.94
2017-12-03T18:09:48.000Z,24.79
2017-12-03T18:19:48.000Z,24.95
2017-12-03T18:29:48.000Z,24.85
2017-12-03T18:39:48.000Z,24.87
2017-12-03T18:49:48.000Z,24.92
2017-12-03T18:59:49.000Z,24.9
2017-12-03T19:09:48.000Z,24.91
2017-12-03T19:19:48.000Z,24.98
2017-12-03T19:29:48.000Z,24.94
2017-12-03T19:39:48.000Z,25.05
2017-12-03T19:49:48.000Z,24.9
2017-12-03T19:59:48.000Z,24.92
2017-12-03T20:09:48.000Z,25.03
2017-12-03T20:19:48.000Z,25.03
2017-12-03T20:29:48.000Z,24.94
2017-12-03T20:39:49.000Z,24.95
2017-12-03T20:49:48.000Z,24.94
2017-12-03T20:59:48.000Z,25.01
2017-12-03T21:09:48.000Z,25.11
2017-12-03T21:19:48.000Z,25.57
2017-12-03T21:29:48.000Z,25.42
2017-12-03T21:39:48.000Z,25.59
2017-12-03T21:49:48.000Z,25.64
2017-12-03T21:59:48.000Z,25.71
2017-12-03T22:09:48.000Z,25.72
2017-12-03T22:19:48.000Z,25.78
2017-12-03T22:29:48.000Z,25.84
2017-12-03T22:39:49.000Z,25.81
2017-12-03T22:49:48.000Z,25.84
2017-12-03T22:59:48.000Z,25.77
2017-12-03T23:09:48.000Z,25.73
2017-12-03T23:19:48.000Z,25.73
2017-12-03T23:29:48.000Z,25.64
2017-12-03T23:39:49.000Z,25.59
2017-12-03T23:49:49.000Z,25.61
2017-12-03T23:59:49.000Z,25.49
